ADDS METAR Data INFO
IDs: Format: Raw Decoded Include TAF

Data at: 0101 UTC 21 Oct 2017

PAGL 210056Z AUTO 07019G24KT M1/4SM +SN FZFG BKN004 BKN015 OVC029 M06/M07 A2915 RMK AO2 CIG 003V010 SLP868 P0000 T10561067 FZRANO
PAGL 210047Z AUTO 08018G23KT 1/4SM +SN FZFG SCT006 BKN015 OVC035 M06/M06 A2915 RMK AO2 P0000 FZRANO
PAGL 210040Z AUTO 09019G24KT 1/2SM -SN FZFG FEW008 BKN035 OVC046 M06/M07 A2916 RMK AO2 P0000 FZRANO
PAGL 210037Z AUTO 09020KT 3/4SM -SN BR FEW016 BKN035 OVC050 M05/M07 A2916 RMK AO2 P0000 FZRANO
PAGL 210034Z AUTO 09019G25KT 1 3/4SM -SN FEW027 BKN035 OVC055 M05/M08 A2916 RMK AO2 VIS 3/4V5 P0000 FZRANO
PAGL 202339Z AUTO 06020KT 3SM -SN FEW010 M05/M08 A2915 RMK AO2 PK WND 07029/2322 P0000 FZRANO
PAGL 202331Z AUTO 07022KT 2SM -SN FEW010 M05/M08 A2915 RMK AO2 PK WND 07029/2322 P0000 FZRANO
PAGL 202324Z AUTO 08024G29KT 1SM -SN BR VV010 M05/M07 A2915 RMK AO2 PK WND 07029/2322 P0000 FZRANO
PAGL 202312Z AUTO 08024G28KT 1 3/4SM -SN BR CLR M05/M07 A2915 RMK AO2 PK WND 08028/2309 VIS 1V5 P0000 FZRANO
PAGL 202256Z AUTO 08021KT 9SM -SN FEW009 SCT030 M05/M07 A2915 RMK AO2 PK WND 07026/2244 SLP868 P0000 T10501072 FZRANO
PAGL 202247Z AUTO 07019G26KT 5SM -SN SCT011 SCT015 BKN033 M05/M08 A2915 RMK AO2 PK WND 07026/2244 P0000 FZRANO
PAGL 202244Z AUTO 07020G26KT 2SM -SN BR SCT011 BKN015 BKN030 M05/M07 A2915 RMK AO2 PK WND 07026/2244 P0000 FZRANO
PAGL 202241Z AUTO 07018G24KT 1SM -SN BR BKN011 BKN016 OVC034 M05/M07 A2915 RMK AO2 CIG 008V012 P0000 FZRANO
PAGL 202225Z AUTO 07018KT 1/2SM -SN FZFG OVC011 M06/M07 A2916 RMK AO2 P0000 FZRANO
PAGL 202217Z AUTO 07018KT 1SM -SN BR OVC011 M06/M07 A2917 RMK AO2 CIG 007V013 P0000 FZRANO
PAGL 202205Z AUTO 07016G23KT 1SM -SN BR BKN009 OVC014 M06/M07 A2917 RMK AO2 CIG 007V011 P0000 FZRANO
PAGL 202156Z AUTO 08020KT 1/2SM SN FZFG BKN009 BKN014 OVC018 M06/M07 A2917 RMK AO2 CIG 007V012 SLP874 P0000 T10561067 FZRANO
PAGL 202154Z AUTO 08017KT 1/2SM SN FZFG BKN009 OVC018 M06/M07 A2917 RMK AO2 CIG 007V014 P0000 FZRANO
PAGL 202148Z AUTO 08017G23KT 3/4SM -SN BR SCT010 OVC018 M05/M07 A2917 RMK AO2 P0000 FZRANO
PAGL 202143Z AUTO 08018G23KT 2 1/2SM -SN BKN016 OVC021 M05/M08 A2917 RMK AO2 P0000 FZRANO
PAGL 202136Z AUTO 08017KT 3SM -SN BKN012 OVC018 M04/M08 A2917 RMK AO2 P0000 FZRANO
PAGL 202129Z AUTO 08016KT 1 1/2SM -SN BKN012 OVC018 M04/M08 A2917 RMK AO2 VIS 1V5 P0000 FZRANO
PAGL 202115Z AUTO 08015KT 1 1/4SM -SN BKN012 OVC018 M05/M08 A2917 RMK AO2 P0000 FZRANO
PAGL 202054Z AUTO 09010KT 3SM -SN SCT018 BKN026 OVC034 M04/M07 A2917 RMK AO2 SNB40 P0000 FZRANO
PAGL 201956Z AUTO 09015KT 9SM SCT029 BKN034 OVC080 M04/M07 A2916 RMK AO2 SNE51 SLP871 P0000 T10391067 FZRANO
PAGL 201942Z AUTO 10016G20KT 8SM -SN SCT026 BKN035 BKN042 M04/M07 A2916 RMK AO2 P0000 FZRANO
PAGL 201926Z AUTO 10015KT 9SM -SN SCT019 SCT024 BKN037 M04/M07 A2916 RMK AO2 P0000 FZRANO
PAGL 201756Z AUTO 10012KT 8SM FEW041 BKN080 OVC095 M04/M07 A2917 RMK AO2 SLP874 60000 T10441072 11044 21094 57010 FZRANO
PAGL 201715Z AUTO 10013KT 10SM BKN030 OVC110 M04/M07 A2917 RMK AO2 FZRANO
PAGL 201656Z AUTO 08009KT 10SM SCT026 M06/M08 A2918 RMK AO2 SNE1558 SLP877 P0000 T10561078 FZRANO
PAGL 201540Z AUTO 11010KT 9SM -SN FEW010 SCT030 M05/M07 A2919 RMK AO2 P0000 FZRANO
PAGL 201456Z AUTO 09006KT 9SM -SN OVC026 M05/M09 A2920 RMK AO2 SNB11 SLP884 P0000 60000 T10501094 56015 FZRANO
PAGL 201424Z AUTO 06003KT 7SM -SN BKN028 BKN037 OVC044 M06/M11 A2921 RMK AO2 SNB11 P0000 FZRANO
PAGL 201356Z AUTO 05005KT 10SM FEW045 SCT050 BKN110 M07/M12 A2921 RMK AO2 SLP888 T10671117 FZRANO
PAGL 201256Z AUTO 05004KT 10SM CLR M08/M11 A2923 RMK AO2 SLP894 T10781111 FZRANO
PAGL 201156Z AUTO 05004KT 10SM CLR M09/M11 A2924 RMK AO2 SLP899 T10941111 11033 21094 58015 FZRANO
PAGL 201056Z AUTO 00000KT 10SM CLR M06/M08 A2926 RMK AO2 SLP904 T10561078 FZRANO
PAGL 200956Z AUTO 00000KT 10SM CLR M07/M09 A2927 RMK AO2 SLP910 T10671089 FZRANO
PAGL 200756Z AUTO 01003KT 10SM CLR M07/M08 A2928 RMK AO2 SLP913 T10671083 FZRANO
PAGL 200656Z AUTO 33008KT 10SM FEW095 M04/M07 A2930 RMK AO2 SLP918 T10391072 FZRANO
PAGL 200456Z AUTO 32009KT 10SM BKN085 M03/M06 A2932 RMK AO2 SLP926 T10281056 FZRANO
PAGL 200356Z AUTO 34010KT 10SM CLR M02/M06 A2932 RMK AO2 SLP927 T10221056 FZRANO
PAGL 200256Z AUTO 33012G16KT 10SM CLR M02/M06 A2933 RMK AO2 SLP929 T10171061 56017 FZRANO
PAGL 200056Z AUTO 31009KT 10SM FEW060 M01/M06 A2936 RMK AO2 SLP940 T10061061 FZRANO
PAGL 192356Z AUTO 34005KT 10SM CLR M01/M05 A2938 RMK AO2 SLP946 T10111050 11011 21056 56021 FZRANO
PAGL 192256Z AUTO 34003KT 10SM FEW065 BKN080 M01/M05 A2940 RMK AO2 SLP953 T10111050 FZRANO
PAGL 192156Z AUTO 00000KT 10SM SCT043 BKN055 M02/M04 A2942 RMK AO2 SLP961 T10171044 FZRANO
PAGL 192056Z AUTO 00000KT 10SM SCT065 BKN090 M02/M04 A2944 RMK AO2 SLP967 T10221044 58015 FZRANO
PAGL 191956Z AUTO 00000KT 10SM CLR M03/M05 A2946 RMK AO2 SLP973 T10331050 FZRANO
PAGL 191756Z AUTO 10003KT 9SM CLR M06/M07 A2949 RMK AO2 SLP982 T10561067 11033 21061 56018 FZRANO
PAGL 191656Z AUTO 01004KT 10SM OVC031 M05/M06 A2950 RMK AO2 SLP987 T10501061 FZRANO
PAGL 191556Z AUTO 06003KT 10SM FEW120 M06/M07 A2952 RMK AO2 SLP993 T10561072 FZRANO
PAGL 191356Z AUTO 02003KT 10SM FEW110 M06/M08 A2956 RMK AO2 SLP006 T10561078 FZRANO